Time;durP1;ratioP1;P1;durP2;ratioP2;P2;SDS_P1;SDS_P2;PMS_P1;PMS_P2;Temp;Humidity;BMP_temperature;BMP_pressure;BME280_temperature;BME280_humidity;BME280_pressure;Samples;Min_cycle;Max_cycle;Signal;HPM_P1;HPM_P2
2021/05/05 00:01:21;;;;;;;;;2.00;2.00;;;;;16.02;46.96;97237.72;4781696;29;102510;-77
2021/05/05 00:03:48;;;;;;;;;1.75;1.00;;;;;16.03;47.16;97235.78;4783500;29;103020;-77
2021/05/05 00:06:15;;;;;;;;;1.00;1.00;;;;;16.04;47.19;97234.72;4773587;29;104039;-76
2021/05/05 00:08:42;;;;;;;;;2.00;1.00;;;;;16.01;47.06;97227.91;4787276;29;105082;-77
2021/05/05 00:11:09;;;;;;;;;1.75;1.50;;;;;16.02;47.36;97229.56;4777883;29;102254;-77
2021/05/05 00:13:36;;;;;;;;;2.00;1.00;;;;;16.02;47.33;97226.81;4787790;29;102493;-77
2021/05/05 00:16:04;;;;;;;;;2.00;1.00;;;;;16.03;46.86;97224.88;4770468;29;104379;-76
2021/05/05 00:18:31;;;;;;;;;2.75;2.00;;;;;16.02;46.82;97224.09;4701628;29;104113;-77
2021/05/05 00:20:58;;;;;;;;;2.25;2.00;;;;;16.02;47.54;97224.09;4777226;29;102402;-76
2021/05/05 00:23:25;;;;;;;;;1.00;1.00;;;;;16.02;47.36;97212.38;4791851;29;102332;-77
2021/05/05 00:25:52;;;;;;;;;2.00;2.00;;;;;16.02;47.34;97206.91;4774351;29;104246;-77
2021/05/05 00:28:19;;;;;;;;;1.00;1.00;;;;;16.02;47.10;97218.66;4777975;29;102596;-76
2021/05/05 00:30:46;;;;;;;;;1.50;1.50;;;;;16.01;47.13;97205.28;4773175;29;102455;-76
2021/05/05 00:33:13;;;;;;;;;2.00;2.00;;;;;16.02;47.26;97206.91;4787932;29;103900;-77
2021/05/05 00:35:40;;;;;;;;;1.75;1.75;;;;;16.01;47.38;97200.63;4765351;29;104984;-77
2021/05/05 00:38:09;;;;;;;;;1.00;1.00;;;;;16.01;47.21;97199.81;4759381;29;102215;-77
2021/05/05 00:40:36;;;;;;;;;1.50;1.50;;;;;16.01;47.24;97195.19;4775924;29;104026;-77
2021/05/05 00:43:03;;;;;;;;;1.00;1.00;;;;;16.01;47.45;97180.72;4771250;29;106271;-77
2021/05/05 00:45:30;;;;;;;;;1.00;1.00;;;;;16.01;47.09;97181.56;4769676;29;109085;-77
2021/05/05 00:47:57;;;;;;;;;2.25;2.00;;;;;16.01;47.35;97181.56;4765675;29;106131;-77
2021/05/05 00:50:24;;;;;;;;;2.00;2.00;;;;;16.00;47.11;97177.19;4770665;29;102679;-77
2021/05/05 00:52:51;;;;;;;;;1.00;1.00;;;;;16.00;47.17;97177.19;4773704;29;102207;-76
2021/05/05 00:55:19;;;;;;;;;3.00;2.00;;;;;16.01;46.84;97186.19;4763354;29;104297;-77
2021/05/05 00:57:46;;;;;;;;;2.75;2.00;;;;;16.00;47.34;97182.63;4765612;29;102684;-77
2021/05/05 01:00:14;;;;;;;;;2.75;2.00;;;;;16.00;46.93;97188.09;4754478;29;103130;-77
2021/05/05 01:02:42;;;;;;;;;1.25;1.00;;;;;16.00;47.23;97179.09;4755431;29;104362;-77
2021/05/05 01:05:10;;;;;;;;;3.75;2.00;;;;;16.00;47.25;97176.34;4755015;29;104131;-77
2021/05/05 01:07:37;;;;;;;;;1.25;1.25;;;;;15.99;47.41;97170.09;4760293;29;102386;-77
2021/05/05 01:10:06;;;;;;;;;1.00;1.00;;;;;15.99;47.17;97170.09;4748106;29;102802;-77
2021/05/05 01:12:33;;;;;;;;;2.00;2.00;;;;;15.99;47.63;97172.81;4758216;29;102344;-77
2021/05/05 01:15:00;;;;;;;;;2.25;2.00;;;;;15.99;47.29;97164.63;4744422;29;105693;-76
2021/05/05 01:17:27;;;;;;;;;1.50;1.00;;;;;15.98;47.30;97154.84;4747302;29;103375;-77
2021/05/05 01:19:54;;;;;;;;;1.00;1.00;;;;;15.99;47.49;97161.91;4752252;29;102286;-77
2021/05/05 01:22:21;;;;;;;;;1.00;1.00;;;;;15.99;47.75;97158.34;4744122;29;104213;-77
2021/05/05 01:24:48;;;;;;;;;2.00;2.00;;;;;15.99;47.20;97175.53;4761532;29;104064;-77
2021/05/05 01:27:14;;;;;;;;;2.00;2.00;;;;;15.99;47.13;97170.09;4757353;29;102281;-77
2021/05/05 01:29:43;;;;;;;;;1.75;1.75;;;;;15.98;46.90;97160.28;4764013;29;102147;-77
2021/05/05 01:32:12;;;;;;;;;1.00;1.00;;;;;15.99;47.12;97161.09;4764223;29;102215;-77
2021/05/05 01:34:40;;;;;;;;;1.75;1.25;;;;;15.98;47.54;97157.56;4753935;29;104490;-77
2021/05/05 01:37:09;;;;;;;;;2.00;2.00;;;;;15.98;47.28;97159.47;4771548;29;108753;-77
2021/05/05 01:39:39;;;;;;;;;2.00;1.00;;;;;15.98;47.48;97160.28;4788788;29;104729;-77
2021/05/05 01:42:07;;;;;;;;;1.00;1.00;;;;;15.98;46.91;97163.03;4784780;29;103881;-77
2021/05/05 01:44:38;;;;;;;;;2.25;2.00;;;;;15.97;47.19;97150.47;4787697;29;107800;-77
2021/05/05 01:47:07;;;;;;;;;2.00;1.50;;;;;15.98;47.28;97154.03;4769978;29;102661;-77
2021/05/05 01:49:34;;;;;;;;;0.00;0.00;;;;;15.97;47.25;97147.75;4782064;29;102653;-77
2021/05/05 01:52:02;;;;;;;;;1.25;1.25;;;;;15.98;47.49;97146.66;4791847;29;102393;-77
2021/05/05 01:54:29;;;;;;;;;2.00;1.00;;;;;15.96;47.47;97143.38;4772904;29;104261;-77
2021/05/05 01:57:23;;;;;;;;;3.00;2.00;;;;;15.97;47.41;97146.91;4789437;29;103489;-77
2021/05/05 01:59:51;;;;;;;;;1.00;1.00;;;;;15.96;47.26;97140.66;4691441;29;102681;-77
2021/05/05 02:02:19;;;;;;;;;1.00;1.00;;;;;15.96;47.51;97137.91;4774439;29;102319;-77
2021/05/05 02:04:46;;;;;;;;;2.00;1.75;;;;;15.96;47.01;97134.38;4781196;29;104186;-76
2021/05/05 02:07:13;;;;;;;;;2.75;2.00;;;;;15.96;47.44;97131.66;4788181;29;104873;-77
2021/05/05 02:09:41;;;;;;;;;1.00;1.00;;;;;15.96;47.57;97123.47;4788714;29;103005;-77
2021/05/05 02:12:09;;;;;;;;;1.25;1.00;;;;;15.94;47.16;97131.91;4791902;29;106442;-77
2021/05/05 02:14:36;;;;;;;;;2.00;1.00;;;;;15.93;47.43;97127.56;4778698;29;109590;-77
2021/05/05 02:17:03;;;;;;;;;2.00;1.75;;;;;15.93;47.33;97135.75;4788949;29;102838;-77
2021/05/05 02:19:30;;;;;;;;;1.00;1.00;;;;;15.93;47.22;97127.56;4784246;29;103763;-77
2021/05/05 02:21:56;;;;;;;;;1.75;1.00;;;;;15.94;47.30;97137.34;4786679;29;103305;-76
2021/05/05 02:24:23;;;;;;;;;1.00;1.00;;;;;15.95;47.40;97138.19;4778171;29;104084;-77
2021/05/05 02:26:50;;;;;;;;;1.00;1.00;;;;;15.94;47.07;97140.09;4784216;29;103053;-76
2021/05/05 02:29:16;;;;;;;;;1.00;1.00;;;;;15.94;47.17;97134.63;4782557;29;102583;-77
2021/05/05 02:31:43;;;;;;;;;2.00;1.00;;;;;15.94;47.34;97145.53;4780241;29;102646;-77
2021/05/05 02:34:10;;;;;;;;;1.00;0.67;;;;;15.94;47.42;97142.81;4772426;29;104062;-77
2021/05/05 02:36:37;;;;;;;;;1.00;1.00;;;;;15.93;47.79;97141.19;4786514;29;102588;-77
2021/05/05 02:39:15;;;;;;;;;1.00;1.00;;;;;15.94;47.14;97150.19;4710511;29;103603;-77
2021/05/05 02:41:42;;;;;;;;;2.00;1.00;;;;;15.92;47.20;97136.84;4781270;29;102531;-77
2021/05/05 02:44:09;;;;;;;;;1.00;1.00;;;;;15.94;47.25;97145.53;4786215;29;104094;-77
2021/05/05 02:46:36;;;;;;;;;1.00;1.00;;;;;15.94;47.24;97150.19;4768357;29;104139;-77
2021/05/05 02:49:04;;;;;;;;;1.00;1.00;;;;;15.93;47.43;97138.47;4783178;29;102177;-76
2021/05/05 02:51:30;;;;;;;;;1.00;1.00;;;;;15.93;47.36;97138.47;4767491;29;103304;-77
2021/05/05 02:53:58;;;;;;;;;1.00;1.00;;;;;15.93;47.17;97143.09;4766843;29;104171;-77
2021/05/05 02:56:25;;;;;;;;;1.00;1.00;;;;;15.92;47.05;97141.47;4771917;29;102060;-77
2021/05/05 02:58:51;;;;;;;;;1.00;1.00;;;;;15.93;47.49;97134.94;4783237;29;102352;-77
2021/05/05 03:01:18;;;;;;;;;1.00;1.00;;;;;15.92;47.51;97136.00;4786076;29;102397;-77
2021/05/05 03:03:45;;;;;;;;;2.00;2.00;;;;;15.92;47.34;97131.38;4782649;29;104940;-77
2021/05/05 03:06:11;;;;;;;;;1.00;1.00;;;;;15.91;47.24;97127.00;4787916;29;102563;-77
2021/05/05 03:08:38;;;;;;;;;3.00;2.25;;;;;15.92;47.50;97128.66;4783422;29;102458;-77
2021/05/05 03:11:05;;;;;;;;;1.00;1.00;;;;;15.90;47.37;97130.81;4766576;29;103744;-76
2021/05/05 03:13:31;;;;;;;;;1.00;1.00;;;;;15.93;47.33;97137.66;4777748;29;105328;-77
2021/05/05 03:15:58;;;;;;;;;2.25;2.00;;;;;15.93;47.47;97126.75;4778300;29;102337;-77
2021/05/05 03:18:25;;;;;;;;;1.75;1.25;;;;;15.93;47.17;97137.66;4785978;29;110827;-77
2021/05/05 03:20:52;;;;;;;;;3.50;1.00;;;;;15.91;47.18;97135.19;4765865;29;102819;-77
2021/05/05 03:23:18;;;;;;;;;1.00;1.00;;;;;15.92;47.07;97133.28;4790314;29;104277;-77
2021/05/05 03:25:45;;;;;;;;;1.00;1.00;;;;;15.91;46.99;97140.63;4762881;29;102731;-77
2021/05/05 03:28:12;;;;;;;;;1.00;1.00;;;;;15.92;47.27;97125.94;4763116;29;102568;-77
2021/05/05 03:30:38;;;;;;;;;2.00;1.00;;;;;15.92;47.27;97133.28;4787654;29;103200;-77
2021/05/05 03:33:05;;;;;;;;;0.25;0.00;;;;;15.92;47.38;97125.09;4769487;29;109331;-77
2021/05/05 03:35:32;;;;;;;;;2.00;1.00;;;;;15.91;47.46;97129.72;4780486;29;102238;-77
2021/05/05 03:37:58;;;;;;;;;1.50;1.00;;;;;15.91;47.34;97134.38;4771585;29;103889;-77
2021/05/05 03:40:25;;;;;;;;;2.00;1.00;;;;;15.91;47.15;97129.72;4776586;29;104027;-77
2021/05/05 03:42:52;;;;;;;;;1.00;1.00;;;;;15.92;47.39;97141.47;4775322;29;104243;-77
2021/05/05 03:45:18;;;;;;;;;1.00;1.00;;;;;15.92;47.18;97136.00;4775513;29;102280;-77
2021/05/05 03:47:45;;;;;;;;;0.00;0.00;;;;;15.91;47.42;97150.72;4785118;29;105123;-77
2021/05/05 03:50:12;;;;;;;;;1.25;1.25;;;;;15.92;46.89;97144.19;4769713;29;102450;-77
2021/05/05 03:52:40;;;;;;;;;1.00;1.00;;;;;15.91;47.49;97139.81;4766041;29;103805;-76
2021/05/05 03:55:07;;;;;;;;;2.00;2.00;;;;;15.91;47.30;97140.63;4780891;29;103536;-76
2021/05/05 03:57:33;;;;;;;;;1.00;0.00;;;;;15.91;47.30;97140.63;4788965;29;102159;-77
2021/05/05 04:00:00;;;;;;;;;1.00;1.00;;;;;15.92;46.99;97136.84;4783605;29;102406;-77
2021/05/05 04:02:27;;;;;;;;;1.00;1.00;;;;;15.90;47.09;97144.44;4758188;29;103843;-77
2021/05/05 04:04:54;;;;;;;;;1.50;1.25;;;;;15.92;47.33;97155.09;4782645;29;102174;-76
2021/05/05 04:07:20;;;;;;;;;1.00;0.25;;;;;15.90;47.09;97147.16;4777546;29;102409;-77
2021/05/05 04:09:47;;;;;;;;;1.00;1.00;;;;;15.89;47.63;97142.84;4785532;29;102988;-77
2021/05/05 04:12:14;;;;;;;;;2.00;2.00;;;;;15.90;47.34;97146.34;4772544;29;104207;-77
2021/05/05 04:14:42;;;;;;;;;1.00;1.00;;;;;15.90;46.79;97143.63;4781265;29;102451;-76
2021/05/05 04:17:26;;;;;;;;;1.00;1.00;;;;;15.90;47.29;97146.34;4679055;29;102643;-77
2021/05/05 04:20:11;;;;;;;;;1.00;1.00;;;;;15.90;47.18;97143.63;4767087;29;102288;-76
2021/05/05 04:22:56;;;;;;;;;1.00;1.00;;;;;15.89;46.71;97140.09;4717852;29;107200;-76
2021/05/05 04:25:40;;;;;;;;;1.00;1.00;;;;;15.88;47.40;97138.47;4784280;29;104179;-77
2021/05/05 04:28:07;;;;;;;;;1.75;1.00;;;;;15.88;47.14;97130.28;4770316;29;102566;-76
2021/05/05 04:30:34;;;;;;;;;0.00;0.00;;;;;15.88;47.78;97134.91;4786989;29;102567;-76
2021/05/05 04:33:01;;;;;;;;;1.00;1.00;;;;;15.88;47.43;97134.91;4786486;29;104095;-77
2021/05/05 04:35:27;;;;;;;;;1.00;1.00;;;;;15.89;47.50;97142.00;4764651;29;102543;-77
2021/05/05 04:37:54;;;;;;;;;0.50;0.50;;;;;15.88;47.07;97141.19;4783533;29;102591;-76
2021/05/05 04:40:21;;;;;;;;;1.50;1.00;;;;;15.88;47.27;97145.81;4746565;29;103175;-77
2021/05/05 04:42:48;;;;;;;;;2.00;1.25;;;;;15.89;47.27;97147.47;4784458;29;105080;-77
2021/05/05 04:45:14;;;;;;;;;1.00;1.00;;;;;15.88;47.32;97140.38;4772851;29;102275;-77
2021/05/05 04:47:41;;;;;;;;;1.00;1.00;;;;;15.89;47.48;97140.09;4796562;29;102632;-76
2021/05/05 04:50:09;;;;;;;;;1.00;1.00;;;;;15.89;46.82;97140.09;4790141;29;103883;-77
2021/05/05 04:52:36;;;;;;;;;1.00;1.00;;;;;15.89;47.19;97148.28;4783631;29;104305;-76
2021/05/05 04:55:03;;;;;;;;;0.00;0.00;;;;;15.89;47.59;97137.38;4769526;29;104406;-77
2021/05/05 04:57:30;;;;;;;;;0.00;0.00;;;;;15.88;47.37;97134.91;4783021;29;103336;-77
2021/05/05 04:59:57;;;;;;;;;2.00;1.00;;;;;15.88;47.22;97143.09;4781981;29;102714;-76
2021/05/05 05:02:23;;;;;;;;;1.25;1.00;;;;;15.88;47.17;97137.63;4784933;29;104093;-77
2021/05/05 05:04:50;;;;;;;;;0.75;0.75;;;;;15.88;47.66;97130.28;4794249;29;102437;-77
2021/05/05 05:07:17;;;;;;;;;1.00;1.00;;;;;15.89;47.68;97131.09;4781513;29;102273;-77
2021/05/05 05:09:44;;;;;;;;;1.25;1.00;;;;;15.88;47.17;97135.75;4785629;29;102605;-77
2021/05/05 05:12:11;;;;;;;;;0.25;0.00;;;;;15.89;47.32;97148.28;4789313;29;104701;-76
2021/05/05 05:14:38;;;;;;;;;0.00;0.00;;;;;15.88;47.31;97138.47;4792172;29;102424;-76
2021/05/05 05:17:05;;;;;;;;;1.00;1.00;;;;;15.88;47.38;97135.75;4767385;29;103629;-77
2021/05/05 05:19:31;;;;;;;;;0.75;0.75;;;;;15.89;47.69;97139.28;4766947;29;102323;-77
2021/05/05 05:21:58;;;;;;;;;1.00;0.75;;;;;15.89;47.02;97148.28;4782306;29;104072;-77
2021/05/05 05:24:25;;;;;;;;;1.00;1.00;;;;;15.89;47.33;97147.47;4786192;29;102732;-77
2021/05/05 05:26:52;;;;;;;;;1.50;1.50;;;;;15.89;47.49;97147.47;4785312;29;102565;-77
2021/05/05 05:29:18;;;;;;;;;0.00;0.00;;;;;15.89;47.26;97137.38;4786979;29;102243;-77
2021/05/05 05:31:45;;;;;;;;;1.00;0.00;;;;;15.90;47.59;97143.63;4790884;29;104088;-77
2021/05/05 05:34:12;;;;;;;;;1.00;1.00;;;;;15.90;47.39;97135.44;4771988;29;104057;-76
2021/05/05 05:36:40;;;;;;;;;1.00;1.00;;;;;15.91;47.67;97140.63;4769752;29;103365;-76
2021/05/05 05:39:07;;;;;;;;;0.75;0.00;;;;;15.90;47.53;97139.00;4772868;29;103959;-76
2021/05/05 05:41:34;;;;;;;;;1.00;1.00;;;;;15.90;47.17;97149.91;4771333;29;104144;-77
2021/05/05 05:44:01;;;;;;;;;0.25;0.25;;;;;15.90;47.71;97139.00;4766584;29;102111;-77
2021/05/05 05:46:27;;;;;;;;;1.00;1.00;;;;;15.91;47.35;97139.81;4763360;29;102115;-76
2021/05/05 05:48:54;;;;;;;;;0.75;0.75;;;;;15.89;47.03;97142.84;4777959;29;102215;-77
2021/05/05 05:51:21;;;;;;;;;1.00;1.00;;;;;15.91;47.59;97145.28;4770337;29;104545;-77
2021/05/05 05:53:48;;;;;;;;;1.00;1.00;;;;;15.90;47.45;97141.72;4768380;29;103974;-77
2021/05/05 05:56:14;;;;;;;;;2.00;1.00;;;;;15.90;47.36;97139.00;4770514;29;102040;-77
2021/05/05 05:58:41;;;;;;;;;1.00;1.00;;;;;15.90;47.40;97147.16;4773248;29;102469;-76
2021/05/05 06:01:08;;;;;;;;;1.50;1.00;;;;;15.90;47.31;97141.72;4767169;29;104095;-77
2021/05/05 06:03:35;;;;;;;;;1.75;1.00;;;;;15.90;47.25;97139.00;4767814;29;102247;-77
2021/05/05 06:06:02;;;;;;;;;0.25;0.25;;;;;15.92;47.62;97134.09;4771793;29;103801;-77
2021/05/05 06:08:28;;;;;;;;;2.00;1.00;;;;;15.90;47.56;97127.28;4771879;29;102553;-76
2021/05/05 06:10:55;;;;;;;;;0.00;0.00;;;;;15.91;47.54;97124.28;4769019;29;104537;-76
2021/05/05 06:13:22;;;;;;;;;1.00;0.00;;;;;15.91;47.36;97118.81;4759946;29;102254;-77
2021/05/05 06:15:49;;;;;;;;;1.00;1.00;;;;;15.91;47.75;97112.56;4774859;29;103860;-76
2021/05/05 06:18:16;;;;;;;;;0.00;0.00;;;;;15.89;47.23;97110.13;4766501;29;102195;-77
2021/05/05 06:20:43;;;;;;;;;1.00;0.50;;;;;15.91;47.74;97113.38;4770017;29;104544;-77
2021/05/05 06:23:09;;;;;;;;;1.00;1.00;;;;;15.91;47.24;97115.28;4768509;29;103709;-76
2021/05/05 06:25:36;;;;;;;;;0.25;0.25;;;;;15.91;47.32;97110.66;4774163;29;103287;-76
2021/05/05 06:28:03;;;;;;;;;0.50;0.50;;;;;15.92;47.19;97114.19;4770782;29;102560;-76
2021/05/05 06:30:29;;;;;;;;;1.00;1.00;;;;;15.93;47.23;97110.38;4755956;29;103801;-77
2021/05/05 06:32:56;;;;;;;;;1.75;0.50;;;;;15.92;47.46;97106.84;4761536;29;102587;-76
2021/05/05 06:35:23;;;;;;;;;1.00;1.00;;;;;15.92;47.46;97101.38;4777359;29;102403;-77
2021/05/05 06:37:50;;;;;;;;;0.75;0.75;;;;;15.94;47.43;97093.75;4785176;29;103555;-77
2021/05/05 06:40:17;;;;;;;;;0.00;0.00;;;;;15.94;47.41;97080.13;4773918;29;104320;-77
2021/05/05 06:42:43;;;;;;;;;0.00;0.00;;;;;15.93;47.23;97089.41;4778864;29;102382;-76
2021/05/05 06:45:11;;;;;;;;;1.00;0.00;;;;;15.95;47.23;97080.94;4785125;29;103436;-76
2021/05/05 06:47:37;;;;;;;;;1.00;1.00;;;;;15.95;46.91;97073.56;4774802;29;103722;-76
2021/05/05 06:50:06;;;;;;;;;1.00;1.00;;;;;15.95;47.34;97070.84;4787105;29;105711;-76
2021/05/05 06:52:33;;;;;;;;;1.00;0.25;;;;;15.97;47.40;97071.41;4773961;29;102634;-76
2021/05/05 06:54:59;;;;;;;;;0.00;0.00;;;;;15.98;47.42;97075.78;4781450;29;102582;-77
2021/05/05 06:57:26;;;;;;;;;0.00;0.00;;;;;15.98;47.48;97072.22;4785718;29;102417;-77
2021/05/05 06:59:53;;;;;;;;;0.50;0.50;;;;;15.98;47.22;97064.06;4788354;29;104303;-77
2021/05/05 07:02:20;;;;;;;;;1.00;0.75;;;;;16.00;47.10;97067.31;4792783;29;102334;-77
2021/05/05 07:04:48;;;;;;;;;0.00;0.00;;;;;15.99;47.12;97063.75;4788290;29;103731;-76
2021/05/05 07:07:15;;;;;;;;;0.33;0.33;;;;;15.99;47.08;97063.75;4772258;29;104295;-77
2021/05/05 07:09:42;;;;;;;;;0.75;0.75;;;;;16.00;47.40;97054.50;4792756;29;104076;-76
2021/05/05 07:12:09;;;;;;;;;1.00;1.00;;;;;16.00;47.21;97068.13;4788249;29;102246;-77
2021/05/05 07:14:35;;;;;;;;;0.00;0.00;;;;;16.00;47.01;97057.22;4787766;29;103379;-76
2021/05/05 07:17:02;;;;;;;;;1.00;1.00;;;;;16.01;47.08;97058.88;4785298;29;102408;-76
2021/05/05 07:19:29;;;;;;;;;1.00;1.00;;;;;16.02;47.15;97055.06;4774993;29;104056;-76
2021/05/05 07:21:56;;;;;;;;;1.00;1.00;;;;;16.02;47.01;97063.22;4785990;29;102588;-77
2021/05/05 07:24:23;;;;;;;;;0.00;0.00;;;;;16.04;47.15;97063.75;4770741;29;103855;-77
2021/05/05 07:26:49;;;;;;;;;1.00;1.00;;;;;16.03;47.10;97064.03;4789632;29;103159;-77
2021/05/05 07:29:16;;;;;;;;;1.00;1.00;;;;;16.04;47.03;97062.94;4789973;29;104390;-77
2021/05/05 07:31:43;;;;;;;;;0.50;0.00;;;;;16.05;47.20;97062.69;4791899;29;102575;-77
2021/05/05 07:34:10;;;;;;;;;1.00;1.00;;;;;16.06;47.21;97055.31;4785413;29;102318;-77
2021/05/05 07:36:42;;;;;;;;;1.00;1.00;;;;;16.06;47.49;97061.59;4787235;29;102287;-76
2021/05/05 07:47:13;;;;;;;;;0.25;0.25;;;;;16.07;47.01;97051.50;4787188;29;102525;-77
2021/05/05 07:49:48;;;;;;;;;1.00;1.00;;;;;16.07;47.32;97041.38;4775755;29;111594;-77
2021/05/05 07:52:15;;;;;;;;;0.00;0.00;;;;;16.08;47.04;97039.50;4785188;29;102150;-77
2021/05/05 07:54:40;;;;;;;;;0.00;0.00;;;;;16.08;46.99;97039.50;4786938;29;102604;-77
2021/05/05 07:57:06;;;;;;;;;0.25;0.25;;;;;16.08;47.01;97028.59;4774931;29;102440;-77
2021/05/05 07:59:32;;;;;;;;;0.50;0.50;;;;;16.09;46.92;97027.50;4788119;29;102956;-76
2021/05/05 08:01:59;;;;;;;;;0.00;0.00;;;;;16.09;46.68;97027.50;4779985;29;102532;-76
2021/05/05 08:04:26;;;;;;;;;0.50;0.50;;;;;16.10;47.30;97029.13;4786802;29;102574;-77
2021/05/05 08:06:53;;;;;;;;;1.00;1.00;;;;;16.10;47.01;97028.31;4771507;29;103182;-77
2021/05/05 08:09:22;;;;;;;;;0.50;0.50;;;;;16.11;47.15;97029.97;4758481;29;104194;-77
2021/05/05 08:11:49;;;;;;;;;0.75;0.75;;;;;16.11;47.09;97028.06;4788319;29;102652;-77
2021/05/05 08:14:16;;;;;;;;;1.00;1.00;;;;;16.12;47.13;97026.94;4764470;29;102710;-77
2021/05/05 08:16:43;;;;;;;;;1.00;0.00;;;;;16.12;46.79;97026.16;4797566;29;102814;-77
2021/05/05 08:19:10;;;;;;;;;1.00;1.00;;;;;16.13;47.16;97020.41;4787595;29;104362;-76
2021/05/05 08:21:37;;;;;;;;;1.75;1.00;;;;;16.13;47.26;97019.56;4782306;29;102763;-77
2021/05/05 08:24:04;;;;;;;;;1.00;0.50;;;;;16.13;46.64;97014.13;4788648;29;102618;-77
2021/05/05 08:26:31;;;;;;;;;2.00;1.00;;;;;16.14;47.15;97013.03;4784851;29;102245;-76
2021/05/05 08:28:58;;;;;;;;;0.25;0.25;;;;;16.16;47.36;97016.31;4787773;29;103937;-77
2021/05/05 08:31:25;;;;;;;;;1.00;0.25;;;;;16.14;46.95;97008.41;4746047;29;102529;-77
2021/05/05 08:33:52;;;;;;;;;0.50;0.50;;;;;16.17;46.70;97017.94;4793636;29;102616;-77
2021/05/05 08:36:18;;;;;;;;;0.50;0.50;;;;;16.17;46.84;97007.03;4789757;29;104106;-77
2021/05/05 08:38:45;;;;;;;;;0.00;0.00;;;;;16.17;46.78;96996.94;4782793;29;104020;-77
2021/05/05 08:41:12;;;;;;;;;0.00;0.00;;;;;16.18;46.90;96997.75;4770260;29;102922;-77
2021/05/05 08:43:39;;;;;;;;;0.75;0.75;;;;;16.19;47.40;96999.41;4792894;29;103686;-76
2021/05/05 08:46:07;;;;;;;;;1.00;1.00;;;;;16.20;47.12;96995.59;4789129;29;102631;-77
2021/05/05 08:48:35;;;;;;;;;0.00;0.00;;;;;16.20;47.02;96990.13;4769765;29;103614;-77
2021/05/05 08:51:06;;;;;;;;;1.00;1.00;;;;;16.22;46.92;97004.28;4769282;29;102858;-77
2021/05/05 08:53:33;;;;;;;;;0.00;0.00;;;;;16.22;46.89;97002.38;4771056;29;102683;-76
2021/05/05 08:55:59;;;;;;;;;1.00;1.00;;;;;16.22;47.16;96987.94;4777686;29;102768;-76
2021/05/05 08:58:27;;;;;;;;;0.00;0.00;;;;;16.23;47.20;96979.47;4768667;29;104545;-76
2021/05/05 09:00:53;;;;;;;;;0.00;0.00;;;;;16.23;47.18;96984.13;4776317;29;102516;-77
2021/05/05 09:03:34;;;;;;;;;1.00;1.00;;;;;16.24;47.24;96977.56;4773149;29;103693;-77
2021/05/05 09:06:04;;;;;;;;;1.00;1.00;;;;;16.25;47.24;96971.03;4766131;29;103466;-77
2021/05/05 09:08:31;;;;;;;;;1.00;0.00;;;;;16.25;47.55;96971.84;4764531;29;104126;-77
2021/05/05 09:11:07;;;;;;;;;1.00;1.00;;;;;16.26;46.73;96978.91;4792694;29;102694;-77
2021/05/05 09:13:53;;;;;;;;;0.00;0.00;;;;;16.27;46.78;96966.09;4790718;29;102238;-76
2021/05/05 09:16:24;;;;;;;;;0.50;0.50;;;;;16.27;46.82;96960.66;4771354;29;104283;-77
2021/05/05 09:18:51;;;;;;;;;0.00;0.00;;;;;16.27;46.88;96964.19;4768255;29;104655;-77
2021/05/05 09:21:28;;;;;;;;;0.00;0.00;;;;;16.29;47.09;96958.47;4784773;29;104098;-77
2021/05/05 09:24:14;;;;;;;;;1.00;1.00;;;;;16.30;46.88;96952.72;4778406;29;103538;-76
2021/05/05 09:26:41;;;;;;;;;0.00;0.00;;;;;16.30;46.90;96960.91;4789743;29;103763;-77
2021/05/05 09:29:08;;;;;;;;;0.00;0.00;;;;;16.32;47.22;96955.19;4770195;29;104126;-76
2021/05/05 09:31:35;;;;;;;;;1.00;1.00;;;;;16.32;47.24;96966.91;4780716;29;103933;-76
2021/05/05 09:34:10;;;;;;;;;0.00;0.00;;;;;16.33;46.77;96965.00;4793901;29;102705;-77
2021/05/05 09:37:04;;;;;;;;;0.00;0.00;;;;;16.33;47.44;96956.81;4770764;29;102211;-77
2021/05/05 09:39:35;;;;;;;;;1.00;1.00;;;;;16.34;46.41;96947.53;4708714;29;108809;-76
2021/05/05 09:42:02;;;;;;;;;1.00;1.00;;;;;16.34;47.29;96958.47;4770010;29;103579;-76
2021/05/05 09:44:29;;;;;;;;;0.50;0.50;;;;;16.35;47.04;96954.63;4766401;29;102021;-76
2021/05/05 09:46:57;;;;;;;;;0.00;0.00;;;;;16.36;47.03;96957.06;4765823;29;102761;-77
2021/05/05 09:49:50;;;;;;;;;0.50;0.50;;;;;16.37;46.85;96953.25;4760768;29;104098;-77
2021/05/05 09:52:24;;;;;;;;;1.00;1.00;;;;;16.36;46.93;96940.69;4759349;29;102275;-76
2021/05/05 09:55:02;;;;;;;;;1.00;0.00;;;;;16.38;46.94;96937.72;4768339;29;101974;-77
2021/05/05 09:57:30;;;;;;;;;0.50;0.50;;;;;16.39;47.00;96939.34;4773586;29;102714;-77
2021/05/05 10:00:05;;;;;;;;;0.00;0.00;;;;;16.38;47.43;96924.88;4770563;29;104085;-77
2021/05/05 10:02:45;;;;;;;;;1.00;1.00;;;;;16.40;47.12;96930.88;4765900;29;104095;-76
2021/05/05 10:05:23;;;;;;;;;1.00;0.00;;;;;16.42;46.96;96927.88;4769967;29;104040;-76
2021/05/05 10:08:03;;;;;;;;;0.00;0.00;;;;;16.43;46.98;96932.25;4773372;29;102557;-77
2021/05/05 10:10:31;;;;;;;;;1.00;1.00;;;;;16.43;47.22;96929.50;4768225;29;104086;-77
2021/05/05 10:12:59;;;;;;;;;1.00;1.00;;;;;16.43;47.13;96924.88;4767988;29;103532;-76
2021/05/05 10:15:27;;;;;;;;;1.00;1.00;;;;;16.44;46.77;96926.47;4768989;29;102388;-77
2021/05/05 10:17:54;;;;;;;;;0.00;0.00;;;;;16.44;47.26;96928.38;4770535;29;102344;-77
2021/05/05 10:20:24;;;;;;;;;0.00;0.00;;;;;16.46;47.08;96924.31;4769719;29;104448;-77
2021/05/05 10:22:52;;;;;;;;;1.00;0.00;;;;;16.45;46.92;96928.13;4767302;29;102711;-77
2021/05/05 10:25:19;;;;;;;;;1.00;1.00;;;;;16.45;46.64;96933.56;4766602;29;102021;-77
2021/05/05 10:27:46;;;;;;;;;0.00;0.00;;;;;16.47;47.27;96930.56;4777520;29;102184;-77
2021/05/05 10:30:18;;;;;;;;;0.33;0.33;;;;;16.49;47.00;96933.81;4764296;29;104161;-76
2021/05/05 10:33:07;;;;;;;;;0.00;0.00;;;;;16.48;46.59;96913.09;4710680;29;102284;-76
2021/05/05 10:35:33;;;;;;;;;0.00;0.00;;;;;16.49;47.22;96929.19;4763921;29;109797;-76
2021/05/05 10:38:00;;;;;;;;;0.00;0.00;;;;;16.50;46.78;96924.56;4770341;29;103869;-76
2021/05/05 10:40:36;;;;;;;;;0.25;0.00;;;;;16.50;46.85;96930.84;4767866;29;104088;-77
2021/05/05 10:43:05;;;;;;;;;0.00;0.00;;;;;16.52;46.47;96936.03;4765875;29;103610;-77
2021/05/05 10:45:39;;;;;;;;;0.00;0.00;;;;;16.51;47.18;96934.38;4767762;29;102042;-76
2021/05/05 10:48:11;;;;;;;;;0.00;0.00;;;;;16.51;47.22;96931.66;4769184;29;103269;-76
2021/05/05 10:50:58;;;;;;;;;0.00;0.00;;;;;16.52;47.21;96949.66;4768200;29;104001;-76
2021/05/05 10:53:51;;;;;;;;;1.00;0.00;;;;;16.52;46.71;96960.56;4701171;29;102663;-77
2021/05/05 10:56:22;;;;;;;;;0.00;0.00;;;;;16.52;46.65;96976.94;4771798;29;102613;-76
2021/05/05 10:59:03;;;;;;;;;1.00;1.00;;;;;16.52;46.75;96960.56;4771090;29;102619;-77
2021/05/05 11:01:42;;;;;;;;;0.00;0.00;;;;;16.51;46.95;96987.03;4685743;29;109093;-77
2021/05/05 11:04:13;;;;;;;;;0.00;0.00;;;;;16.52;47.03;96976.94;4769331;29;105434;-77
2021/05/05 11:06:51;;;;;;;;;1.25;1.00;;;;;16.52;47.05;96987.84;4766402;29;102593;-76
2021/05/05 11:09:19;;;;;;;;;1.00;1.00;;;;;16.53;46.81;96994.94;4771311;29;102696;-77
2021/05/05 11:11:52;;;;;;;;;0.00;0.00;;;;;16.52;47.04;97010.47;4776399;29;108906;-76
2021/05/05 11:14:28;;;;;;;;;1.00;1.00;;;;;16.54;46.54;97029.31;4771224;29;102513;-76
2021/05/05 11:16:55;;;;;;;;;1.00;1.00;;;;;16.54;47.40;97032.03;4757275;29;105934;-77
2021/05/05 11:19:37;;;;;;;;;0.00;0.00;;;;;16.54;46.75;97034.78;4767671;29;102543;-77
2021/05/05 11:22:05;;;;;;;;;0.00;0.00;;;;;16.54;46.68;97032.03;4770240;29;104119;-77
2021/05/05 11:24:38;;;;;;;;;0.00;0.00;;;;;16.54;46.88;97045.69;4763035;29;102547;-77
2021/05/05 11:27:09;;;;;;;;;1.00;0.00;;;;;16.55;47.08;97046.50;4773386;29;102527;-76
2021/05/05 11:29:43;;;;;;;;;0.00;0.00;;;;;16.55;46.80;97050.06;4764860;29;102156;-76
2021/05/05 11:32:13;;;;;;;;;0.00;0.00;;;;;16.56;47.32;97054.44;4769303;29;104066;-76
2021/05/05 11:34:42;;;;;;;;;0.00;0.00;;;;;16.57;47.35;97068.88;4772497;29;102776;-76
2021/05/05 11:37:22;;;;;;;;;0.00;0.00;;;;;16.57;46.75;97077.88;4787368;29;112013;-76
2021/05/05 11:39:54;;;;;;;;;0.00;0.00;;;;;16.57;46.61;97069.69;4785440;29;102629;-76